Time;durP1;ratioP1;P1;durP2;ratioP2;P2;SDS_P1;SDS_P2;PMS_P1;PMS_P2;Temp;Humidity;BMP_temperature;BMP_pressure;BME280_temperature;BME280_humidity;BME280_pressure;Samples;Min_cycle;Max_cycle;Signal;HPM_P1;HPM_P2
2022/11/08 00:03:41;;;;;;;24.38;17.67;;;13.40;1.00;;;;;;5105396;28;20061;-54
2022/11/08 00:14:19;;;;;;;28.98;18.17;;;13.30;1.00;;;;;;5109747;28;20047;-53
2022/11/08 00:16:44;;;;;;;24.25;18.20;;;13.40;1.00;;;;;;5111822;28;20020;-53
2022/11/08 00:19:10;;;;;;;24.90;17.67;;;13.40;1.00;;;;;;5110334;28;20069;-51
2022/11/08 00:21:36;;;;;;;23.90;17.35;;;13.40;1.00;;;;;;5111833;28;20073;-53
2022/11/08 00:24:02;;;;;;;21.45;16.98;;;13.40;1.00;;;;;;5110892;28;20477;-56
2022/11/08 00:26:27;;;;;;;24.55;17.38;;;13.40;1.00;;;;;;5093575;28;20472;-56
2022/11/08 00:28:53;;;;;;;23.48;17.77;;;13.40;1.00;;;;;;5110760;28;20118;-57
2022/11/08 00:31:19;;;;;;;22.88;16.85;;;13.40;1.00;;;;;;5115060;28;20023;-57
2022/11/08 00:33:44;;;;;;;26.38;17.27;;;13.40;1.00;;;;;;5114748;28;20032;-57
2022/11/08 00:36:10;;;;;;;24.60;16.58;;;13.40;1.00;;;;;;5115084;28;20111;-58
2022/11/08 00:38:39;;;;;;;24.50;17.50;;;13.40;1.00;;;;;;5095778;28;20035;-55
2022/11/08 00:41:05;;;;;;;24.30;17.63;;;13.40;1.00;;;;;;5115645;28;20027;-54
2022/11/08 00:43:30;;;;;;;25.92;16.98;;;13.30;1.00;;;;;;5114451;28;20377;-52
2022/11/08 00:45:56;;;;;;;25.08;17.05;;;13.40;1.00;;;;;;5115722;28;20038;-55
2022/11/08 00:48:21;;;;;;;22.05;16.33;;;13.30;1.00;;;;;;5114123;28;20476;-56
2022/11/08 00:50:47;;;;;;;24.08;16.63;;;13.40;1.00;;;;;;5096787;28;20023;-54
2022/11/08 00:53:12;;;;;;;19.92;15.70;;;13.40;1.00;;;;;;5113911;28;20035;-55
2022/11/08 00:55:38;;;;;;;29.10;17.65;;;13.40;1.00;;;;;;5114893;28;20055;-53
2022/11/08 00:58:04;;;;;;;22.60;16.38;;;13.40;1.00;;;;;;5114298;28;20057;-55
2022/11/08 01:00:30;;;;;;;21.92;16.08;;;13.30;1.00;;;;;;5114869;28;20353;-53
2022/11/08 01:05:40;;;;;;;22.63;15.87;;;13.40;1.00;;;;;;5106429;28;20046;-57
2022/11/08 01:08:06;;;;;;;22.70;16.02;;;13.40;1.00;;;;;;5112814;28;20106;-55
2022/11/08 01:10:31;;;;;;;22.38;14.82;;;13.40;1.00;;;;;;5113049;28;20165;-57
2022/11/08 01:12:57;;;;;;;21.38;15.70;;;13.40;1.00;;;;;;5095771;28;20047;-54
2022/11/08 01:15:23;;;;;;;21.08;14.98;;;13.40;1.00;;;;;;5110335;28;20023;-57
2022/11/08 01:17:48;;;;;;;23.10;16.38;;;13.50;1.00;;;;;;5114173;28;20126;-56
2022/11/08 01:20:14;;;;;;;22.27;16.45;;;13.40;1.00;;;;;;5113857;28;20035;-57
2022/11/08 01:22:39;;;;;;;24.58;16.63;;;13.40;1.00;;;;;;5109802;28;20111;-56
2022/11/08 01:25:05;;;;;;;24.23;17.30;;;13.40;1.00;;;;;;5113374;28;20031;-52
2022/11/08 01:27:31;;;;;;;24.00;17.88;;;13.40;1.00;;;;;;5099975;28;20646;-56
2022/11/08 01:29:56;;;;;;;26.38;17.83;;;13.40;1.00;;;;;;5103086;28;20378;-57
2022/11/08 01:32:22;;;;;;;24.70;17.40;;;13.40;1.00;;;;;;5094133;28;20063;-58
2022/11/08 01:34:47;;;;;;;24.75;16.95;;;13.40;1.00;;;;;;5103519;28;20039;-56
2022/11/08 01:37:14;;;;;;;21.92;16.70;;;13.40;1.00;;;;;;5103787;28;20540;-56
2022/11/08 01:39:39;;;;;;;30.13;18.92;;;13.50;1.00;;;;;;5104897;28;20032;-54
2022/11/08 01:42:05;;;;;;;21.25;16.23;;;13.50;1.00;;;;;;5101390;27;20031;-55
2022/11/08 01:44:31;;;;;;;24.63;17.67;;;13.50;1.00;;;;;;5113214;27;20125;-55
2022/11/08 01:46:57;;;;;;;27.40;18.55;;;13.40;1.00;;;;;;5105733;28;20078;-56
2022/11/08 01:49:34;;;;;;;23.27;16.60;;;13.40;1.00;;;;;;5095742;28;20135;-57
2022/11/08 01:52:29;;;;;;;23.35;17.63;;;13.50;1.00;;;;;;5093705;28;20020;-57
2022/11/08 01:55:07;;;;;;;23.15;17.38;;;13.40;1.00;;;;;;5095086;28;20036;-56
2022/11/08 01:57:41;;;;;;;24.88;17.70;;;13.50;1.00;;;;;;5066543;28;20033;-57
2022/11/08 02:00:11;;;;;;;26.13;17.20;;;13.50;1.00;;;;;;5070597;28;20046;-56
2022/11/08 02:02:38;;;;;;;24.60;17.75;;;13.50;1.00;;;;;;5073102;28;20046;-55
2022/11/08 02:05:23;;;;;;;25.10;17.60;;;13.50;1.00;;;;;;5071319;28;20017;-54
2022/11/08 02:07:59;;;;;;;;;;;13.50;1.00;;;;;;5073570;28;20446;-54
2022/11/08 02:10:31;;;;;;;21.58;17.85;;;13.50;1.00;;;;;;5072355;28;19908;-54
2022/11/08 02:12:58;;;;;;;23.75;17.50;;;13.50;1.00;;;;;;5060195;28;20024;-56
2022/11/08 02:15:24;;;;;;;24.08;17.48;;;13.50;1.00;;;;;;5071483;28;20085;-53
2022/11/08 02:17:50;;;;;;;25.42;16.55;;;13.50;1.00;;;;;;5072316;28;20021;-54
2022/11/08 02:20:16;;;;;;;21.75;15.88;;;13.40;1.00;;;;;;5071511;28;20025;-53
2022/11/08 02:22:51;;;;;;;20.98;14.65;;;13.50;1.00;;;;;;5071740;28;20082;-53
2022/11/08 02:25:16;;;;;;;23.33;14.57;;;13.40;1.00;;;;;;5070253;28;20502;-55
2022/11/08 02:27:42;;;;;;;21.58;15.18;;;13.50;1.00;;;;;;5071694;28;20036;-56
2022/11/08 02:30:08;;;;;;;25.50;15.25;;;13.50;1.00;;;;;;5071077;28;20079;-55
2022/11/08 02:32:41;;;;;;;20.02;14.48;;;13.50;1.00;;;;;;5072474;28;20031;-53
2022/11/08 02:35:14;;;;;;;20.88;14.93;;;13.50;1.00;;;;;;5071327;28;20067;-55
2022/11/08 02:37:39;;;;;;;21.48;17.25;;;13.50;1.00;;;;;;5072470;28;20103;-53
2022/11/08 02:40:06;;;;;;;23.05;15.68;;;13.50;1.00;;;;;;5059937;28;20470;-56
2022/11/08 02:42:31;;;;;;;22.85;15.43;;;13.40;1.00;;;;;;5069448;28;20028;-55
2022/11/08 02:44:57;;;;;;;21.77;15.95;;;13.40;1.00;;;;;;5067575;28;20051;-55
2022/11/08 02:47:23;;;;;;;23.08;16.60;;;13.40;1.00;;;;;;5067160;28;20101;-55
2022/11/08 02:49:49;;;;;;;21.75;16.85;;;13.50;1.00;;;;;;5071510;28;20037;-57
2022/11/08 02:52:14;;;;;;;22.85;16.67;;;13.40;1.00;;;;;;5072346;28;20027;-55
2022/11/08 02:54:40;;;;;;;24.83;17.20;;;13.40;1.00;;;;;;5071574;28;20033;-55
2022/11/08 02:57:05;;;;;;;22.13;16.27;;;13.40;1.00;;;;;;5070759;28;20083;-54
2022/11/08 02:59:31;;;;;;;18.65;14.65;;;13.40;1.00;;;;;;5071044;28;20028;-54
2022/11/08 03:01:57;;;;;;;20.80;15.10;;;13.30;1.00;;;;;;5071352;28;20024;-57
2022/11/08 03:04:22;;;;;;;19.67;13.32;;;13.40;1.00;;;;;;5069827;28;20109;-54
2022/11/08 03:07:06;;;;;;;18.20;13.60;;;13.40;1.00;;;;;;5071019;28;20074;-57
2022/11/08 03:09:32;;;;;;;16.67;11.55;;;13.40;1.00;;;;;;5071243;28;20091;-52
2022/11/08 03:11:57;;;;;;;15.65;12.20;;;13.30;1.00;;;;;;5053851;28;20024;-56
2022/11/08 03:14:23;;;;;;;16.55;12.25;;;13.30;1.00;;;;;;5070873;28;20028;-53
2022/11/08 03:16:49;;;;;;;15.75;11.85;;;13.30;1.00;;;;;;5071949;28;20044;-53
2022/11/08 03:19:14;;;;;;;15.88;11.73;;;13.40;1.00;;;;;;5071043;28;20551;-55
2022/11/08 03:21:40;;;;;;;13.95;11.02;;;13.40;1.00;;;;;;5071266;28;20111;-54
2022/11/08 03:24:06;;;;;;;14.93;11.30;;;13.40;1.00;;;;;;5070771;28;20111;-57
2022/11/08 03:26:31;;;;;;;13.38;11.20;;;13.30;1.00;;;;;;5071765;28;20020;-57
2022/11/08 03:28:57;;;;;;;14.95;10.88;;;13.40;1.00;;;;;;5070318;28;20394;-54
2022/11/08 03:31:23;;;;;;;13.00;10.88;;;13.30;1.00;;;;;;5071098;28;20486;-53
2022/11/08 03:33:48;;;;;;;14.55;10.85;;;13.30;1.00;;;;;;5085247;28;20024;-52
2022/11/08 03:36:14;;;;;;;13.63;10.35;;;13.30;1.00;;;;;;5071655;28;20056;-55
2022/11/08 03:38:39;;;;;;;13.98;9.68;;;13.30;1.00;;;;;;5071271;28;20021;-56
2022/11/08 03:41:05;;;;;;;13.23;10.70;;;13.40;1.00;;;;;;5071697;28;20029;-53
2022/11/08 03:43:31;;;;;;;19.33;12.65;;;13.40;1.00;;;;;;5071603;28;20470;-55
2022/11/08 03:45:56;;;;;;;16.35;12.75;;;13.30;1.00;;;;;;5058407;28;20028;-56
2022/11/08 03:48:22;;;;;;;15.88;13.27;;;13.40;1.00;;;;;;5070517;28;20044;-57
2022/11/08 03:50:49;;;;;;;18.73;13.85;;;13.40;1.00;;;;;;5068990;28;20033;-56
2022/11/08 03:53:15;;;;;;;14.50;11.77;;;13.40;1.00;;;;;;5071494;28;20051;-56
2022/11/08 03:55:40;;;;;;;15.10;12.43;;;13.40;1.00;;;;;;5078473;28;20468;-55
2022/11/08 03:58:06;;;;;;;12.80;11.40;;;13.30;1.00;;;;;;5091362;28;20040;-54
2022/11/08 04:00:32;;;;;;;12.85;9.23;;;13.30;1.00;;;;;;5092830;28;20035;-54
2022/11/08 04:03:02;;;;;;;10.23;8.38;;;13.30;1.00;;;;;;5099046;28;20034;-55
2022/11/08 04:05:30;;;;;;;10.43;9.13;;;13.40;1.00;;;;;;5095526;28;20099;-56
2022/11/08 04:07:57;;;;;;;11.88;9.30;;;13.40;1.00;;;;;;5095355;28;20028;-55
2022/11/08 04:10:23;;;;;;;10.80;8.52;;;13.40;1.00;;;;;;5098089;28;20040;-56
2022/11/08 04:15:32;;;;;;;11.07;7.60;;;13.30;1.00;;;;;;5099152;28;20160;-55
2022/11/08 04:23:33;;;;;;;11.23;9.27;;;13.40;1.00;;;;;;5094408;28;20297;-56
2022/11/08 04:26:01;;;;;;;11.75;9.05;;;13.30;1.00;;;;;;5100773;28;20093;-57
2022/11/08 04:28:29;;;;;;;12.57;8.82;;;13.40;1.00;;;;;;5098469;28;20039;-57
2022/11/08 04:31:01;;;;;;;10.50;8.45;;;13.30;1.00;;;;;;5099339;28;20028;-54
2022/11/08 04:33:27;;;;;;;10.57;9.07;;;13.30;1.00;;;;;;5095080;28;20020;-57
2022/11/08 04:35:53;;;;;;;11.40;8.38;;;13.40;1.00;;;;;;5102446;27;20421;-55
2022/11/08 04:38:19;;;;;;;10.05;8.43;;;13.30;1.00;;;;;;5094877;28;20032;-55
2022/11/08 04:40:45;;;;;;;12.68;8.93;;;13.30;1.00;;;;;;5102696;28;20429;-56
2022/11/08 04:43:11;;;;;;;10.32;9.23;;;13.40;1.00;;;;;;5100896;27;20056;-57
2022/11/08 04:45:36;;;;;;;11.13;8.82;;;13.40;1.00;;;;;;5100728;28;20054;-56
2022/11/08 04:48:02;;;;;;;11.63;8.70;;;13.40;1.00;;;;;;5105397;27;20159;-53
2022/11/08 04:50:27;;;;;;;11.48;8.73;;;13.30;1.00;;;;;;5101487;28;20504;-54
2022/11/08 04:52:54;;;;;;;13.98;10.50;;;13.30;1.00;;;;;;5096524;28;20528;-56
2022/11/08 04:55:21;;;;;;;10.95;9.15;;;13.30;1.00;;;;;;5099502;28;20027;-57
2022/11/08 04:57:48;;;;;;;12.85;9.57;;;13.30;1.00;;;;;;5097719;28;20483;-56
2022/11/08 05:00:15;;;;;;;16.92;9.85;;;13.30;1.00;;;;;;5098635;28;20100;-55
2022/11/08 05:02:40;;;;;;;10.90;8.90;;;13.30;1.00;;;;;;5099626;28;20036;-54
2022/11/08 05:05:07;;;;;;;11.95;9.55;;;13.30;1.00;;;;;;5097537;28;20023;-51
2022/11/08 05:07:32;;;;;;;12.90;10.18;;;13.30;1.00;;;;;;5109517;28;20041;-57
2022/11/08 05:09:58;;;;;;;12.90;10.05;;;13.30;1.00;;;;;;5099320;28;20032;-53
2022/11/08 05:12:23;;;;;;;13.23;10.30;;;13.40;1.00;;;;;;5103930;28;20465;-56
2022/11/08 05:14:49;;;;;;;12.65;9.70;;;13.30;1.00;;;;;;5094249;27;20032;-52
2022/11/08 05:17:16;;;;;;;14.55;10.05;;;13.30;1.00;;;;;;5109430;28;20452;-57
2022/11/08 05:25:09;;;;;;;12.02;9.10;;;13.30;1.00;;;;;;5102593;28;20043;-56
2022/11/08 05:27:35;;;;;;;11.23;8.82;;;13.30;1.00;;;;;;5104552;28;20024;-56
2022/11/08 05:30:01;;;;;;;10.75;8.80;;;13.20;1.00;;;;;;5111230;28;20032;-55
2022/11/08 05:32:26;;;;;;;9.90;8.90;;;13.20;1.00;;;;;;5113702;28;20448;-55
2022/11/08 05:34:52;;;;;;;10.70;9.10;;;13.30;1.00;;;;;;5114299;28;20026;-56
2022/11/08 05:37:43;;;;;;;15.05;8.57;;;13.30;1.00;;;;;;5113427;28;20400;-56
2022/11/08 05:40:09;;;;;;;8.50;7.60;;;13.30;1.00;;;;;;5101740;28;20023;-56
2022/11/08 05:42:35;;;;;;;10.00;7.82;;;13.30;1.00;;;;;;5113668;28;20016;-56
2022/11/08 05:45:01;;;;;;;8.93;7.97;;;13.30;1.00;;;;;;5113729;28;20476;-54
2022/11/08 05:47:26;;;;;;;9.95;8.73;;;13.30;1.00;;;;;;5110929;28;20039;-53
2022/11/08 05:49:52;;;;;;;9.63;8.07;;;13.30;1.00;;;;;;5109596;28;20063;-54
2022/11/08 05:52:17;;;;;;;11.35;9.52;;;13.30;1.00;;;;;;5113145;28;20023;-54
2022/11/08 05:54:43;;;;;;;10.10;8.82;;;13.30;1.00;;;;;;5113573;28;20055;-55
2022/11/08 05:57:08;;;;;;;10.52;8.00;;;13.30;1.00;;;;;;5113077;28;20044;-56
2022/11/08 05:59:34;;;;;;;11.23;8.80;;;13.20;1.00;;;;;;5114074;28;20600;-53
2022/11/08 06:02:00;;;;;;;11.55;9.73;;;13.10;1.00;;;;;;5113175;28;20027;-53
2022/11/08 06:04:25;;;;;;;14.07;9.45;;;13.30;1.00;;;;;;5113624;28;20040;-53
2022/11/08 06:06:51;;;;;;;11.43;9.32;;;13.30;1.00;;;;;;5112737;28;20023;-56
2022/11/08 06:09:16;;;;;;;9.75;7.90;;;13.30;1.00;;;;;;5105033;28;20131;-55
2022/11/08 06:11:42;;;;;;;10.00;8.20;;;13.30;1.00;;;;;;5107452;28;20055;-54
2022/11/08 06:14:08;;;;;;;10.32;8.45;;;13.30;1.00;;;;;;5113646;28;20031;-53
2022/11/08 06:16:33;;;;;;;9.05;8.15;;;13.30;1.00;;;;;;5111539;27;20460;-53
2022/11/08 06:18:59;;;;;;;10.10;8.07;;;13.30;1.00;;;;;;5112867;28;20035;-56
2022/11/08 06:21:26;;;;;;;12.60;8.90;;;13.30;1.00;;;;;;5109154;27;20463;-55
2022/11/08 06:23:53;;;;;;;9.40;7.15;;;13.30;1.00;;;;;;5099445;27;20122;-53
2022/11/08 06:26:19;;;;;;;9.00;7.38;;;13.30;1.00;;;;;;5098623;28;20047;-52
2022/11/08 06:28:45;;;;;;;8.88;6.57;;;13.10;1.00;;;;;;5102674;28;20032;-50
2022/11/08 06:31:10;;;;;;;8.40;6.63;;;13.00;1.00;;;;;;5105591;28;20042;-54
2022/11/08 06:33:36;;;;;;;12.55;8.27;;;13.10;1.00;;;;;;5109899;28;20030;-56
2022/11/08 06:36:02;;;;;;;7.95;7.18;;;13.20;1.00;;;;;;5096194;28;20020;-51
2022/11/08 06:38:27;;;;;;;10.52;8.18;;;13.30;1.00;;;;;;5112950;28;20075;-56
2022/11/08 06:40:53;;;;;;;10.95;7.38;;;13.30;1.00;;;;;;5097657;28;20035;-51
2022/11/08 06:43:19;;;;;;;8.88;7.20;;;13.40;1.00;;;;;;5112768;28;20030;-52
2022/11/08 06:45:45;;;;;;;13.20;8.40;;;13.40;1.00;;;;;;5111611;28;20099;-54
2022/11/08 06:48:10;;;;;;;10.85;7.47;;;13.40;1.00;;;;;;5112373;28;20065;-56
2022/11/08 06:50:36;;;;;;;10.32;7.55;;;13.40;1.00;;;;;;5113122;28;20032;-55
2022/11/08 06:53:07;;;;;;;12.68;7.38;;;13.50;1.00;;;;;;5106061;27;20030;-54
2022/11/08 06:55:34;;;;;;;12.65;8.18;;;13.50;1.00;;;;;;5107109;28;20066;-56
2022/11/08 06:57:59;;;;;;;12.98;8.88;;;13.50;1.00;;;;;;5106071;28;20042;-55
2022/11/08 07:00:26;;;;;;;14.60;7.78;;;13.50;1.00;;;;;;5111082;28;20031;-56
2022/11/08 07:02:59;;;;;;;11.52;9.23;;;13.40;1.00;;;;;;5109411;27;20032;-52
2022/11/08 07:05:26;;;;;;;10.75;8.23;;;13.50;1.00;;;;;;5112800;28;20015;-56
2022/11/08 07:07:52;;;;;;;17.23;11.43;;;13.50;1.00;;;;;;5111627;28;20024;-56
2022/11/08 07:10:19;;;;;;;15.32;11.95;;;13.60;1.00;;;;;;5111771;28;20088;-54
2022/11/08 07:12:46;;;;;;;17.88;12.35;;;13.60;1.00;;;;;;5110705;28;20023;-55
2022/11/08 07:15:12;;;;;;;20.33;14.02;;;13.60;1.00;;;;;;5111238;28;20071;-55
2022/11/08 07:17:38;;;;;;;16.98;12.85;;;13.60;1.00;;;;;;5111495;28;20027;-54
2022/11/08 07:20:04;;;;;;;20.60;13.75;;;13.60;1.00;;;;;;5112184;28;20020;-55
2022/11/08 07:22:29;;;;;;;19.77;14.30;;;13.70;1.00;;;;;;5111305;28;20023;-55
2022/11/08 07:24:55;;;;;;;17.83;13.10;;;13.60;1.00;;;;;;5112002;28;20050;-51
2022/11/08 07:27:20;;;;;;;21.33;13.88;;;13.50;1.00;;;;;;5090141;28;20069;-56
2022/11/08 07:29:46;;;;;;;19.83;14.13;;;13.60;1.00;;;;;;5104656;28;20038;-56
2022/11/08 07:32:12;;;;;;;27.48;13.45;;;13.70;1.00;;;;;;5109773;28;20501;-54
2022/11/08 07:34:37;;;;;;;16.23;12.10;;;13.60;1.00;;;;;;5109100;28;20020;-54
2022/11/08 07:37:03;;;;;;;18.48;13.18;;;13.70;1.00;;;;;;5110705;28;20465;-56
2022/11/08 07:39:28;;;;;;;17.73;13.27;;;13.70;1.00;;;;;;5100624;28;20043;-53
2022/11/08 07:41:54;;;;;;;17.02;12.57;;;13.70;1.00;;;;;;5115927;28;20061;-56
2022/11/08 07:44:19;;;;;;;19.80;12.98;;;13.70;1.00;;;;;;5115601;27;20445;-54
2022/11/08 07:46:46;;;;;;;20.70;12.52;;;13.70;1.00;;;;;;5115830;28;20035;-55
2022/11/08 07:49:11;;;;;;;15.60;12.68;;;13.70;1.00;;;;;;5115302;28;20039;-56
2022/11/08 07:51:37;;;;;;;19.60;13.30;;;13.70;1.00;;;;;;5115782;27;20103;-55
2022/11/08 07:54:03;;;;;;;17.00;12.60;;;13.80;1.00;;;;;;5115963;28;20055;-52
2022/11/08 07:56:28;;;;;;;16.58;11.63;;;13.80;1.00;;;;;;5115095;28;20097;-55
2022/11/08 07:58:54;;;;;;;19.08;12.20;;;13.80;1.00;;;;;;5115952;28;20051;-56
2022/11/08 08:01:19;;;;;;;19.80;12.95;;;13.90;1.00;;;;;;5111876;28;20080;-67
2022/11/08 08:03:45;;;;;;;31.63;13.18;;;13.90;1.00;;;;;;5114241;28;20024;-64
2022/11/08 08:06:11;;;;;;;28.48;12.77;;;13.90;1.00;;;;;;5114933;28;20034;-66
2022/11/08 08:08:36;;;;;;;25.73;11.48;;;13.90;1.00;;;;;;5115662;28;20035;-64
2022/11/08 08:11:03;;;;;;;20.27;10.93;;;13.90;1.00;;;;;;5115929;28;20099;-63
2022/11/08 08:13:30;;;;;;;23.40;12.23;;;13.90;1.00;;;;;;5114728;28;20077;-63
2022/11/08 08:15:59;;;;;;;18.95;12.85;;;13.90;1.00;;;;;;5111319;28;20036;-64
2022/11/08 08:18:25;;;;;;;19.05;11.85;;;14.00;1.00;;;;;;5114404;28;20034;-63
2022/11/08 08:20:51;;;;;;;15.15;12.00;;;14.00;1.00;;;;;;5115693;28;20474;-64
2022/11/08 08:23:16;;;;;;;26.30;14.25;;;14.00;1.00;;;;;;5114592;28;20040;-62
2022/11/08 08:25:42;;;;;;;18.48;12.77;;;14.10;1.00;;;;;;5110286;28;20036;-62
2022/11/08 08:28:08;;;;;;;19.13;12.38;;;14.10;1.00;;;;;;5109928;28;20023;-62
2022/11/08 08:30:34;;;;;;;18.88;13.23;;;14.10;1.00;;;;;;5115373;28;20062;-62
2022/11/08 08:33:10;;;;;;;21.95;12.55;;;14.10;1.00;;;;;;5112801;28;20015;-63
2022/11/08 08:35:37;;;;;;;20.05;12.27;;;14.20;1.00;;;;;;5114117;28;20019;-63
2022/11/08 08:38:03;;;;;;;18.20;12.77;;;14.20;1.00;;;;;;5113978;28;20434;-69
2022/11/08 08:40:29;;;;;;;17.20;12.85;;;14.20;1.00;;;;;;5112865;28;20073;-69
2022/11/08 08:42:58;;;;;;;16.17;12.75;;;14.10;1.00;;;;;;5116797;27;20098;-60
2022/11/08 08:45:24;;;;;;;20.63;13.63;;;14.10;1.00;;;;;;5115433;27;20064;-59
2022/11/08 08:47:54;;;;;;;20.15;13.50;;;14.10;1.00;;;;;;5117606;27;20087;-69
2022/11/08 08:50:20;;;;;;;18.50;13.55;;;14.10;1.00;;;;;;5113562;28;20032;-70
2022/11/08 08:52:46;;;;;;;14.90;13.10;;;14.20;1.00;;;;;;5096572;28;20106;-71
2022/11/08 08:55:12;;;;;;;19.77;13.43;;;14.10;1.00;;;;;;5112759;28;20516;-73
2022/11/08 08:57:38;;;;;;;19.90;14.85;;;14.20;1.00;;;;;;5115417;28;20044;-75
2022/11/08 09:00:04;;;;;;;23.58;15.23;;;14.30;1.00;;;;;;5093282;28;20082;-68
2022/11/08 09:02:30;;;;;;;26.77;15.80;;;14.30;1.00;;;;;;5085833;28;20020;-69
2022/11/08 09:04:56;;;;;;;23.67;15.38;;;14.40;1.00;;;;;;5110861;28;20032;-70
2022/11/08 09:07:21;;;;;;;19.00;14.60;;;14.30;1.00;;;;;;5110738;28;20496;-62
2022/11/08 09:09:47;;;;;;;23.92;16.35;;;14.30;1.00;;;;;;5112559;28;20459;-70
2022/11/08 09:12:12;;;;;;;29.90;16.23;;;14.20;1.00;;;;;;5112738;28;20035;-63
2022/11/08 09:14:38;;;;;;;27.15;16.65;;;14.30;1.00;;;;;;5108990;28;20393;-69
2022/11/08 09:17:03;;;;;;;34.72;16.23;;;14.20;1.00;;;;;;5112694;27;20023;-70
2022/11/08 09:19:29;;;;;;;28.00;16.40;;;14.20;1.00;;;;;;5112626;28;20036;-68
2022/11/08 09:21:55;;;;;;;32.83;18.45;;;14.20;1.00;;;;;;5111570;28;20028;-69
2022/11/08 09:24:20;;;;;;;30.33;19.45;;;14.30;1.00;;;;;;5112199;27;20107;-70
2022/11/08 09:26:46;;;;;;;39.00;18.83;;;14.20;1.00;;;;;;5089423;28;20027;-67
2022/11/08 09:29:12;;;;;;;26.58;17.85;;;14.20;1.00;;;;;;5113993;28;20039;-63
2022/11/08 09:31:37;;;;;;;27.27;19.10;;;14.30;1.00;;;;;;5112471;28;20023;-67
2022/11/08 09:34:03;;;;;;;25.75;18.48;;;14.40;1.00;;;;;;5110085;28;20144;-70
2022/11/08 09:36:28;;;;;;;28.48;18.13;;;14.50;1.00;;;;;;5111861;28;20027;-68
2022/11/08 09:38:54;;;;;;;33.05;18.85;;;14.60;1.00;;;;;;5112995;28;20224;-72
2022/11/08 09:41:43;;;;;;;31.65;18.33;;;14.70;1.00;;;;;;5103146;27;20024;-75
2022/11/08 09:44:17;;;;;;;29.17;19.27;;;14.80;1.00;;;;;;5081659;28;20109;-68
2022/11/08 09:46:56;;;;;;;27.90;17.17;;;14.70;1.00;;;;;;5094115;28;20032;-78
2022/11/08 09:49:40;;;;;;;27.88;17.20;;;14.80;1.00;;;;;;5112667;28;20042;-71
2022/11/08 09:52:09;;;;;;;83.05;24.88;;;14.90;1.00;;;;;;5111180;28;20028;-71
2022/11/08 09:54:42;;;;;;;56.78;24.67;;;14.90;1.00;;;;;;5105343;28;20512;-63
2022/11/08 09:57:23;;;;;;;25.13;17.17;;;14.80;1.00;;;;;;5112798;28;20047;-67
2022/11/08 09:59:57;;;;;;;27.17;17.63;;;14.70;1.00;;;;;;5114801;28;20028;-61
2022/11/08 10:02:23;;;;;;;20.63;17.88;;;14.70;1.00;;;;;;5093913;28;20069;-63
2022/11/08 10:04:56;;;;;;;29.95;18.85;;;14.80;1.00;;;;;;5104134;28;20121;-61
2022/11/08 10:07:21;;;;;;;30.60;18.85;;;14.90;1.00;;;;;;5111161;28;20484;-61
2022/11/08 10:10:05;;;;;;;29.20;18.20;;;15.00;1.00;;;;;;5110292;28;20116;-62
2022/11/08 10:12:52;;;;;;;21.85;18.38;;;15.00;1.00;;;;;;5093179;28;20020;-62
2022/11/08 10:15:44;;;;;;;26.63;19.13;;;15.10;1.00;;;;;;5107322;28;20059;-60
2022/11/08 10:18:35;;;;;;;25.10;19.17;;;15.20;1.00;;;;;;5100911;28;20048;-63
2022/11/08 10:21:36;;;;;;;24.75;18.70;;;15.30;1.00;;;;;;5095297;28;20045;-61
2022/11/08 10:24:13;;;;;;;24.70;19.45;;;15.40;1.00;;;;;;5101824;28;20089;-68
2022/11/08 10:26:44;;;;;;;23.58;19.02;;;15.40;1.00;;;;;;5096257;28;20472;-55
2022/11/08 10:29:19;;;;;;;27.25;19.73;;;15.40;1.00;;;;;;5107297;28;20050;-75
2022/11/08 10:31:47;;;;;;;27.23;19.15;;;15.50;1.00;;;;;;5106936;28;20027;-68
2022/11/08 10:34:24;;;;;;;26.35;18.95;;;15.40;1.00;;;;;;5077330;28;20054;-66
2022/11/08 10:36:59;;;;;;;24.65;18.85;;;15.40;1.00;;;;;;5103146;28;20020;-77
2022/11/08 10:39:32;;;;;;;22.58;18.52;;;15.50;1.00;;;;;;5111377;28;20019;-76
2022/11/08 10:42:28;;;;;;;23.60;18.98;;;15.50;1.00;;;;;;5104676;27;20035;-70
2022/11/08 10:44:53;;;;;;;21.42;18.67;;;15.50;1.00;;;;;;5100850;28;20437;-69
2022/11/08 10:47:32;;;;;;;23.25;18.33;;;15.50;1.00;;;;;;5105379;28;20026;-66
2022/11/08 10:49:58;;;;;;;21.65;17.77;;;15.50;1.00;;;;;;5109898;27;20104;-72
2022/11/08 10:52:39;;;;;;;22.05;17.67;;;15.50;1.00;;;;;;5110995;27;20031;-72
2022/11/08 10:55:07;;;;;;;22.75;19.00;;;15.40;1.00;;;;;;5108766;28;20063;-67
2022/11/08 10:57:43;;;;;;;23.90;17.90;;;15.50;1.00;;;;;;5104530;28;20028;-66
2022/11/08 11:00:26;;;;;;;23.33;18.70;;;15.60;1.00;;;;;;5102637;28;20130;-65
2022/11/08 11:02:53;;;;;;;26.10;19.08;;;15.60;1.00;;;;;;5100763;28;20028;-68
2022/11/08 11:05:18;;;;;;;20.05;17.63;;;15.60;1.00;;;;;;5111412;28;20019;-70
2022/11/08 11:07:56;;;;;;;23.42;16.67;;;15.70;1.00;;;;;;5104742;28;20411;-72
2022/11/08 11:10:26;;;;;;;29.73;15.95;;;15.70;1.00;;;;;;5103795;28;20122;-69
2022/11/08 11:13:00;;;;;;;27.85;16.30;;;15.70;1.00;;;;;;5073691;28;20396;-66
2022/11/08 11:15:36;;;;;;;;;;;15.70;1.00;;;;;;5105475;28;20476;-72
2022/11/08 11:18:04;;;;;;;22.52;17.80;;;15.90;1.00;;;;;;5102377;28;19930;-69
2022/11/08 11:20:31;;;;;;;26.60;17.17;;;15.90;1.00;;;;;;5100165;28;20023;-68
2022/11/08 11:22:59;;;;;;;24.65;18.73;;;16.10;1.00;;;;;;5076885;28;20027;-70
2022/11/08 11:25:25;;;;;;;24.77;18.35;;;16.20;1.00;;;;;;5111001;28;20437;-69
2022/11/08 11:27:58;;;;;;;20.60;17.73;;;16.30;1.00;;;;;;5103771;28;20061;-68
2022/11/08 11:30:32;;;;;;;28.45;17.98;;;16.20;1.00;;;;;;5103434;27;20130;-71
2022/11/08 11:33:18;;;;;;;22.08;18.33;;;16.30;1.00;;;;;;5098072;28;20070;-66
2022/11/08 11:35:50;;;;;;;20.25;17.48;;;16.30;1.00;;;;;;5091922;28;20139;-81
2022/11/08 11:38:34;;;;;;;22.88;18.67;;;16.50;1.00;;;;;;5091476;28;20102;-71
2022/11/08 11:41:05;;;;;;;24.63;17.80;;;16.60;1.00;;;;;;5093301;28;20425;-65
2022/11/08 11:43:42;;;;;;;25.50;18.80;;;16.60;1.00;;;;;;5091475;28;20028;-69
2022/11/08 11:46:22;;;;;;;23.15;18.63;;;16.40;1.00;;;;;;5094315;28;20365;-68
2022/11/08 11:49:01;;;;;;;24.73;18.63;;;16.40;1.00;;;;;;5094283;28;20496;-82
2022/11/08 11:51:29;;;;;;;24.10;19.55;;;16.60;1.00;;;;;;5092344;28;20473;-80
2022/11/08 11:53:55;;;;;;;28.63;20.65;;;16.60;1.00;;;;;;5110627;28;20062;-79
2022/11/08 11:56:30;;;;;;;29.90;22.92;;;16.50;1.00;;;;;;5096924;28;20051;-77
2022/11/08 11:59:14;;;;;;;20.33;18.10;;;16.60;1.00;;;;;;5097558;28;20039;-79
2022/11/08 12:01:52;;;;;;;20.45;17.33;;;16.60;1.00;;;;;;5100090;28;20050;-78
2022/11/08 12:04:37;;;;;;;26.02;18.73;;;16.60;1.00;;;;;;5093825;28;20835;-80
2022/11/08 12:07:12;;;;;;;26.67;19.40;;;16.60;1.00;;;;;;5075559;28;20085;-78
2022/11/08 12:09:56;;;;;;;21.67;17.27;;;16.40;1.00;;;;;;5096462;28;20039;-78
2022/11/08 12:12:40;;;;;;;28.93;16.73;;;16.50;1.00;;;;;;5091774;28;20027;-78
2022/11/08 12:15:27;;;;;;;31.65;17.88;;;16.50;1.00;;;;;;5081099;28;20024;-78
2022/11/08 12:18:04;;;;;;;26.33;17.52;;;16.50;1.00;;;;;;5101839;28;20477;-79
2022/11/08 12:20:42;;;;;;;21.88;15.88;;;16.40;1.00;;;;;;5107847;28;20384;-78
2022/11/08 12:23:07;;;;;;;19.63;15.73;;;16.50;1.00;;;;;;5091414;28;20032;-78
2022/11/08 12:25:47;;;;;;;18.02;14.00;;;16.60;1.00;;;;;;5101161;28;20039;-77
2022/11/08 12:28:37;;;;;;;21.45;14.55;;;16.60;1.00;;;;;;5109207;28;20028;-77
2022/11/08 12:31:02;;;;;;;21.73;15.27;;;16.70;1.00;;;;;;5098270;28;20056;-80
2022/11/08 12:33:47;;;;;;;17.30;12.48;;;16.70;1.00;;;;;;5112919;28;20043;-80
2022/11/08 12:36:25;;;;;;;;;;;16.60;1.00;;;;;;5115092;28;20602;-78
2022/11/08 12:38:50;;;;;;;17.52;12.90;;;16.60;1.00;;;;;;5102571;28;19904;-79
2022/11/08 12:41:22;;;;;;;19.33;13.13;;;16.70;1.00;;;;;;5112265;28;20031;-79
2022/11/08 12:43:56;;;;;;;15.07;12.68;;;16.60;1.00;;;;;;5109156;28;20112;-81
2022/11/08 12:46:22;;;;;;;15.68;12.05;;;16.50;1.00;;;;;;5113326;28;20019;-82
2022/11/08 12:49:04;;;;;;;15.80;11.30;;;16.50;1.00;;;;;;5118167;28;20056;-58
2022/11/08 12:51:39;;;;;;;17.02;13.68;;;16.50;1.00;;;;;;5114107;28;20057;-65
2022/11/08 12:54:27;;;;;;;14.77;12.30;;;16.50;1.00;;;;;;5103696;28;20028;-66
2022/11/08 12:56:57;;;;;;;17.85;13.73;;;16.50;1.00;;;;;;5103556;28;20070;-66
2022/11/08 12:59:44;;;;;;;17.67;13.90;;;16.50;1.00;;;;;;5103795;28;20028;-65
2022/11/08 13:02:26;;;;;;;47.92;16.73;;;16.60;1.00;;;;;;5094318;28;20022;-66
2022/11/08 13:05:13;;;;;;;19.65;13.43;;;16.60;1.00;;;;;;5101932;28;20051;-63
2022/11/08 13:07:48;;;;;;;15.35;11.95;;;16.60;1.00;;;;;;5094138;28;20035;-64
2022/11/08 13:10:23;;;;;;;22.75;13.02;;;16.60;1.00;;;;;;5100686;28;20031;-63
2022/11/08 13:12:57;;;;;;;29.90;13.95;;;16.60;1.00;;;;;;5094415;28;20028;-64
2022/11/08 13:15:24;;;;;;;20.38;13.07;;;16.50;1.00;;;;;;5102189;28;20374;-64
2022/11/08 13:18:05;;;;;;;21.23;13.15;;;16.50;1.00;;;;;;5108073;28;20016;-64